sensor_id;sensor_type;location;lat;lon;timestamp;pressure;altitude;pressure_sealevel;temperature;humidity
55517;BME280;41724;51.176;-0.708;2023-11-21T00:01:21;100982.21;;;12.85;77.50
55517;BME280;41724;51.176;-0.708;2023-11-21T00:03:48;100981.49;;;12.66;77.07
55517;BME280;41724;51.176;-0.708;2023-11-21T00:06:15;100987.21;;;12.71;76.86
55517;BME280;41724;51.176;-0.708;2023-11-21T00:08:42;100987.22;;;12.40;77.46
55517;BME280;41724;51.176;-0.708;2023-11-21T00:11:09;100988.81;;;13.12;76.77
55517;BME280;41724;51.176;-0.708;2023-11-21T00:13:37;100985.57;;;12.97;77.34
55517;BME280;41724;51.176;-0.708;2023-11-21T00:16:05;100988.60;;;12.62;77.08
55517;BME280;41724;51.176;-0.708;2023-11-21T00:18:32;100986.34;;;12.92;77.87
55517;BME280;41724;51.176;-0.708;2023-11-21T00:20:59;100995.38;;;13.14;76.08
55517;BME280;41724;51.176;-0.708;2023-11-21T00:23:27;100999.76;;;12.65;78.51
55517;BME280;41724;51.176;-0.708;2023-11-21T00:25:54;101001.72;;;13.24;76.75
55517;BME280;41724;51.176;-0.708;2023-11-21T00:28:21;101000.28;;;13.34;74.42
55517;BME280;41724;51.176;-0.708;2023-11-21T00:30:48;101012.00;;;12.71;76.80
55517;BME280;41724;51.176;-0.708;2023-11-21T00:33:15;101013.21;;;12.36;78.94
55517;BME280;41724;51.176;-0.708;2023-11-21T00:35:42;101011.20;;;12.65;78.78
55517;BME280;41724;51.176;-0.708;2023-11-21T00:38:09;101012.53;;;12.55;78.48
55517;BME280;41724;51.176;-0.708;2023-11-21T00:40:36;101017.55;;;13.24;77.58
55517;BME280;41724;51.176;-0.708;2023-11-21T00:43:03;101028.72;;;12.88;78.36
55517;BME280;41724;51.176;-0.708;2023-11-21T00:45:30;101025.32;;;13.57;76.92
55517;BME280;41724;51.176;-0.708;2023-11-21T00:47:57;101030.63;;;12.83;76.25
55517;BME280;41724;51.176;-0.708;2023-11-21T00:50:24;101033.13;;;13.19;76.17
55517;BME280;41724;51.176;-0.708;2023-11-21T00:52:51;101030.89;;;12.95;77.16
55517;BME280;41724;51.176;-0.708;2023-11-21T00:55:18;101030.92;;;12.45;79.50
55517;BME280;41724;51.176;-0.708;2023-11-21T00:57:45;101030.42;;;13.18;78.09
55517;BME280;41724;51.176;-0.708;2023-11-21T01:00:13;101026.80;;;13.22;78.73
55517;BME280;41724;51.176;-0.708;2023-11-21T01:02:40;101029.10;;;12.45;79.50
55517;BME280;41724;51.176;-0.708;2023-11-21T01:05:07;101028.99;;;13.07;78.10
55517;BME280;41724;51.176;-0.708;2023-11-21T01:07:34;101030.44;;;13.26;76.98
55517;BME280;41724;51.176;-0.708;2023-11-21T01:10:02;101034.38;;;13.82;76.55
55517;BME280;41724;51.176;-0.708;2023-11-21T01:12:28;101036.07;;;12.45;78.89
55517;BME280;41724;51.176;-0.708;2023-11-21T01:14:55;101037.73;;;13.21;77.54
55517;BME280;41724;51.176;-0.708;2023-11-21T01:17:23;101037.42;;;13.04;77.53
55517;BME280;41724;51.176;-0.708;2023-11-21T01:19:50;101047.10;;;13.31;77.08
55517;BME280;41724;51.176;-0.708;2023-11-21T01:22:17;101049.13;;;13.35;76.34
55517;BME280;41724;51.176;-0.708;2023-11-21T01:24:45;101055.28;;;13.23;77.18
55517;BME280;41724;51.176;-0.708;2023-11-21T01:27:12;101056.91;;;12.48;78.81
55517;BME280;41724;51.176;-0.708;2023-11-21T01:29:40;101060.63;;;13.74;76.82
55517;BME280;41724;51.176;-0.708;2023-11-21T01:32:07;101060.30;;;13.54;75.86
55517;BME280;41724;51.176;-0.708;2023-11-21T01:34:34;101063.98;;;13.65;75.95
55517;BME280;41724;51.176;-0.708;2023-11-21T01:37:01;101068.01;;;13.22;77.09
55517;BME280;41724;51.176;-0.708;2023-11-21T01:39:28;101078.49;;;12.33;79.10
55517;BME280;41724;51.176;-0.708;2023-11-21T01:41:56;101080.07;;;12.80;80.23
55517;BME280;41724;51.176;-0.708;2023-11-21T01:44:22;101082.51;;;12.39;80.40
55517;BME280;41724;51.176;-0.708;2023-11-21T01:46:50;101090.54;;;12.60;80.04
55517;BME280;41724;51.176;-0.708;2023-11-21T01:49:19;101089.24;;;12.59;81.89
55517;BME280;41724;51.176;-0.708;2023-11-21T01:51:48;101092.36;;;12.65;81.13
55517;BME280;41724;51.176;-0.708;2023-11-21T01:54:16;101093.96;;;12.94;79.55
55517;BME280;41724;51.176;-0.708;2023-11-21T01:56:44;101095.78;;;12.99;79.78
55517;BME280;41724;51.176;-0.708;2023-11-21T01:59:12;101102.49;;;13.07;79.25
55517;BME280;41724;51.176;-0.708;2023-11-21T02:01:41;101102.08;;;13.40;78.24
55517;BME280;41724;51.176;-0.708;2023-11-21T02:04:08;101097.19;;;13.22;80.35
55517;BME280;41724;51.176;-0.708;2023-11-21T02:06:35;101097.46;;;12.73;80.79
55517;BME280;41724;51.176;-0.708;2023-11-21T02:09:02;101103.34;;;12.34;82.93
55517;BME280;41724;51.176;-0.708;2023-11-21T02:11:29;101108.40;;;12.74;81.46
55517;BME280;41724;51.176;-0.708;2023-11-21T02:13:57;101114.40;;;13.42;81.09
55517;BME280;41724;51.176;-0.708;2023-11-21T02:16:26;101114.96;;;12.85;81.11
55517;BME280;41724;51.176;-0.708;2023-11-21T02:18:53;101121.70;;;13.50;79.80
55517;BME280;41724;51.176;-0.708;2023-11-21T02:21:20;101125.63;;;13.08;80.57
55517;BME280;41724;51.176;-0.708;2023-11-21T02:23:47;101125.33;;;12.91;80.05
55517;BME280;41724;51.176;-0.708;2023-11-21T02:26:14;101125.94;;;13.31;80.18
55517;BME280;41724;51.176;-0.708;2023-11-21T02:28:41;101134.16;;;12.82;80.24
55517;BME280;41724;51.176;-0.708;2023-11-21T02:31:08;101138.68;;;13.02;80.79
55517;BME280;41724;51.176;-0.708;2023-11-21T02:33:35;101137.07;;;13.20;79.54
55517;BME280;41724;51.176;-0.708;2023-11-21T02:36:03;101138.94;;;13.35;78.48
55517;BME280;41724;51.176;-0.708;2023-11-21T02:38:30;101142.78;;;13.55;78.79
55517;BME280;41724;51.176;-0.708;2023-11-21T02:40:58;101146.98;;;13.12;78.79
55517;BME280;41724;51.176;-0.708;2023-11-21T02:43:25;101151.63;;;12.99;80.39
55517;BME280;41724;51.176;-0.708;2023-11-21T02:45:52;101152.90;;;13.59;79.46
55517;BME280;41724;51.176;-0.708;2023-11-21T02:48:19;101150.81;;;13.27;79.52
55517;BME280;41724;51.176;-0.708;2023-11-21T02:50:46;101154.51;;;13.53;79.53
55517;BME280;41724;51.176;-0.708;2023-11-21T02:53:14;101158.33;;;13.64;79.61
55517;BME280;41724;51.176;-0.708;2023-11-21T02:55:41;101157.50;;;13.68;79.06
55517;BME280;41724;51.176;-0.708;2023-11-21T02:58:08;101164.09;;;13.84;78.53
55517;BME280;41724;51.176;-0.708;2023-11-21T03:00:35;101165.56;;;13.94;77.80
55517;BME280;41724;51.176;-0.708;2023-11-21T03:03:02;101165.97;;;13.88;77.06
55517;BME280;41724;51.176;-0.708;2023-11-21T03:05:29;101171.21;;;13.51;78.04
55517;BME280;41724;51.176;-0.708;2023-11-21T03:07:56;101176.14;;;13.37;78.44
55517;BME280;41724;51.176;-0.708;2023-11-21T03:10:23;101183.26;;;13.37;78.00
55517;BME280;41724;51.176;-0.708;2023-11-21T03:12:50;101187.72;;;13.60;77.32
55517;BME280;41724;51.176;-0.708;2023-11-21T03:15:17;101194.29;;;13.80;77.32
55517;BME280;41724;51.176;-0.708;2023-11-21T03:17:44;101195.70;;;13.84;76.89
55517;BME280;41724;51.176;-0.708;2023-11-21T03:20:11;101191.81;;;14.26;77.09
55517;BME280;41724;51.176;-0.708;2023-11-21T03:22:38;101198.59;;;14.00;76.62
55517;BME280;41724;51.176;-0.708;2023-11-21T03:25:06;101199.43;;;14.27;75.75
55517;BME280;41724;51.176;-0.708;2023-11-21T03:27:34;101200.51;;;13.93;75.86
55517;BME280;41724;51.176;-0.708;2023-11-21T03:30:01;101197.74;;;13.39;76.67
55517;BME280;41724;51.176;-0.708;2023-11-21T03:32:28;101201.66;;;13.93;76.73
55517;BME280;41724;51.176;-0.708;2023-11-21T03:34:56;101202.47;;;13.83;76.29
55517;BME280;41724;51.176;-0.708;2023-11-21T03:37:24;101206.10;;;13.92;75.74
55517;BME280;41724;51.176;-0.708;2023-11-21T03:39:51;101205.66;;;13.94;75.97
55517;BME280;41724;51.176;-0.708;2023-11-21T03:42:19;101205.04;;;14.16;75.96
55517;BME280;41724;51.176;-0.708;2023-11-21T03:44:46;101202.51;;;14.46;74.91
55517;BME280;41724;51.176;-0.708;2023-11-21T03:47:13;101205.34;;;14.58;74.75
55517;BME280;41724;51.176;-0.708;2023-11-21T03:49:40;101214.65;;;13.93;75.72
55517;BME280;41724;51.176;-0.708;2023-11-21T03:52:07;101218.46;;;13.52;77.80
55517;BME280;41724;51.176;-0.708;2023-11-21T03:54:34;101221.29;;;12.97;79.79
55517;BME280;41724;51.176;-0.708;2023-11-21T03:57:01;101225.01;;;12.88;80.84
55517;BME280;41724;51.176;-0.708;2023-11-21T03:59:28;101228.10;;;13.04;80.71
55517;BME280;41724;51.176;-0.708;2023-11-21T04:01:55;101232.35;;;12.86;81.05
55517;BME280;41724;51.176;-0.708;2023-11-21T04:04:22;101235.69;;;13.72;79.96
55517;BME280;41724;51.176;-0.708;2023-11-21T04:06:49;101237.72;;;13.56;78.80
55517;BME280;41724;51.176;-0.708;2023-11-21T04:09:16;101241.06;;;13.76;77.87
55517;BME280;41724;51.176;-0.708;2023-11-21T04:11:43;101241.68;;;13.45;78.42
55517;BME280;41724;51.176;-0.708;2023-11-21T04:14:10;101248.50;;;12.75;80.71
55517;BME280;41724;51.176;-0.708;2023-11-21T04:16:37;101251.58;;;13.17;79.61
55517;BME280;41724;51.176;-0.708;2023-11-21T04:19:04;101254.66;;;13.37;79.54
55517;BME280;41724;51.176;-0.708;2023-11-21T04:21:32;101260.26;;;13.51;77.86
55517;BME280;41724;51.176;-0.708;2023-11-21T04:23:59;101266.85;;;13.38;78.63
55517;BME280;41724;51.176;-0.708;2023-11-21T04:26:26;101267.15;;;13.08;79.28
55517;BME280;41724;51.176;-0.708;2023-11-21T04:28:53;101270.92;;;13.27;79.61
55517;BME280;41724;51.176;-0.708;2023-11-21T04:31:20;101274.00;;;13.79;77.81
55517;BME280;41724;51.176;-0.708;2023-11-21T04:33:47;101276.70;;;13.94;77.02
55517;BME280;41724;51.176;-0.708;2023-11-21T04:36:15;101288.84;;;13.83;76.37
55517;BME280;41724;51.176;-0.708;2023-11-21T04:38:42;101293.93;;;13.18;77.09
55517;BME280;41724;51.176;-0.708;2023-11-21T04:41:08;101294.58;;;13.66;76.05
55517;BME280;41724;51.176;-0.708;2023-11-21T04:43:35;101297.32;;;13.87;75.62
55517;BME280;41724;51.176;-0.708;2023-11-21T04:46:02;101300.57;;;13.89;75.12
55517;BME280;41724;51.176;-0.708;2023-11-21T04:48:29;101305.09;;;13.19;75.89
55517;BME280;41724;51.176;-0.708;2023-11-21T04:50:56;101307.98;;;13.29;77.54
55517;BME280;41724;51.176;-0.708;2023-11-21T04:53:24;101314.18;;;11.95;78.30
55517;BME280;41724;51.176;-0.708;2023-11-21T04:55:51;101314.16;;;12.69;78.22
55517;BME280;41724;51.176;-0.708;2023-11-21T04:58:18;101313.25;;;12.59;78.48
55517;BME280;41724;51.176;-0.708;2023-11-21T05:00:45;101314.76;;;12.86;77.03
55517;BME280;41724;51.176;-0.708;2023-11-21T05:03:12;101311.79;;;13.03;75.52
55517;BME280;41724;51.176;-0.708;2023-11-21T05:05:39;101307.11;;;12.67;75.05
55517;BME280;41724;51.176;-0.708;2023-11-21T05:08:06;101307.89;;;13.33;73.80
55517;BME280;41724;51.176;-0.708;2023-11-21T05:10:33;101310.72;;;13.14;74.47
55517;BME280;41724;51.176;-0.708;2023-11-21T05:13:00;101317.04;;;13.36;74.52
55517;BME280;41724;51.176;-0.708;2023-11-21T05:15:27;101318.22;;;12.85;75.44
55517;BME280;41724;51.176;-0.708;2023-11-21T05:17:54;101316.75;;;13.22;73.79
55517;BME280;41724;51.176;-0.708;2023-11-21T05:20:21;101314.59;;;13.17;74.46
55517;BME280;41724;51.176;-0.708;2023-11-21T05:22:48;101319.72;;;13.81;72.94
55517;BME280;41724;51.176;-0.708;2023-11-21T05:25:16;101315.04;;;13.26;73.17
55517;BME280;41724;51.176;-0.708;2023-11-21T05:27:42;101323.63;;;13.29;72.76
55517;BME280;41724;51.176;-0.708;2023-11-21T05:30:10;101330.63;;;13.62;72.70
55517;BME280;41724;51.176;-0.708;2023-11-21T05:32:38;101337.09;;;13.35;72.42
55517;BME280;41724;51.176;-0.708;2023-11-21T05:35:05;101343.71;;;13.16;71.55
55517;BME280;41724;51.176;-0.708;2023-11-21T05:37:32;101344.59;;;13.65;71.70
55517;BME280;41724;51.176;-0.708;2023-11-21T05:39:59;101350.51;;;13.56;71.09
55517;BME280;41724;51.176;-0.708;2023-11-21T05:42:26;101355.50;;;13.48;72.72
55517;BME280;41724;51.176;-0.708;2023-11-21T05:44:53;101356.42;;;13.52;73.28
55517;BME280;41724;51.176;-0.708;2023-11-21T05:47:20;101369.11;;;13.30;72.59
55517;BME280;41724;51.176;-0.708;2023-11-21T05:49:47;101377.90;;;13.22;71.09
55517;BME280;41724;51.176;-0.708;2023-11-21T05:52:15;101380.73;;;13.56;70.94
55517;BME280;41724;51.176;-0.708;2023-11-21T05:54:42;101394.29;;;13.34;71.33
55517;BME280;41724;51.176;-0.708;2023-11-21T05:57:09;101402.77;;;12.47;73.40
55517;BME280;41724;51.176;-0.708;2023-11-21T05:59:36;101409.20;;;12.62;74.28
55517;BME280;41724;51.176;-0.708;2023-11-21T06:02:03;101418.14;;;12.95;73.55
55517;BME280;41724;51.176;-0.708;2023-11-21T06:04:30;101416.32;;;12.54;74.09
55517;BME280;41724;51.176;-0.708;2023-11-21T06:06:57;101417.58;;;12.19;73.03
55517;BME280;41724;51.176;-0.708;2023-11-21T06:09:24;101416.05;;;12.61;73.82
55517;BME280;41724;51.176;-0.708;2023-11-21T06:11:51;101413.45;;;12.11;74.30
55517;BME280;41724;51.176;-0.708;2023-11-21T06:14:18;101421.38;;;12.55;74.41
55517;BME280;41724;51.176;-0.708;2023-11-21T06:16:45;101434.44;;;13.13;72.61
55517;BME280;41724;51.176;-0.708;2023-11-21T06:19:12;101438.86;;;12.75;73.83
55517;BME280;41724;51.176;-0.708;2023-11-21T06:21:39;101443.06;;;12.67;74.07
55517;BME280;41724;51.176;-0.708;2023-11-21T06:24:07;101451.45;;;11.75;76.75
55517;BME280;41724;51.176;-0.708;2023-11-21T06:26:33;101450.61;;;12.82;76.19
55517;BME280;41724;51.176;-0.708;2023-11-21T06:29:01;101447.39;;;12.12;75.49
55517;BME280;41724;51.176;-0.708;2023-11-21T06:31:28;101451.30;;;12.26;76.78
55517;BME280;41724;51.176;-0.708;2023-11-21T06:33:55;101449.72;;;12.17;74.90
55517;BME280;41724;51.176;-0.708;2023-11-21T06:36:22;101457.17;;;11.82;76.45
55517;BME280;41724;51.176;-0.708;2023-11-21T06:38:49;101452.44;;;12.08;76.37
55517;BME280;41724;51.176;-0.708;2023-11-21T06:41:16;101454.11;;;12.01;75.47
55517;BME280;41724;51.176;-0.708;2023-11-21T06:43:43;101451.91;;;12.32;74.84
55517;BME280;41724;51.176;-0.708;2023-11-21T06:46:11;101450.47;;;12.53;71.68
55517;BME280;41724;51.176;-0.708;2023-11-21T06:48:38;101460.35;;;12.45;71.27
55517;BME280;41724;51.176;-0.708;2023-11-21T06:51:06;101475.57;;;12.17;72.80
55517;BME280;41724;51.176;-0.708;2023-11-21T06:53:33;101476.75;;;12.87;72.20
55517;BME280;41724;51.176;-0.708;2023-11-21T06:56:00;101483.14;;;12.17;72.46
55517;BME280;41724;51.176;-0.708;2023-11-21T06:58:27;101488.43;;;12.37;71.67
55517;BME280;41724;51.176;-0.708;2023-11-21T07:00:54;101488.12;;;12.62;71.21
55517;BME280;41724;51.176;-0.708;2023-11-21T07:03:21;101492.61;;;12.85;70.95
55517;BME280;41724;51.176;-0.708;2023-11-21T07:05:48;101497.61;;;13.03;70.33
55517;BME280;41724;51.176;-0.708;2023-11-21T07:08:15;101506.08;;;13.35;68.34
55517;BME280;41724;51.176;-0.708;2023-11-21T07:10:43;101513.48;;;13.01;68.38
55517;BME280;41724;51.176;-0.708;2023-11-21T07:13:10;101522.59;;;11.83;70.86
55517;BME280;41724;51.176;-0.708;2023-11-21T07:15:37;101531.38;;;11.73;72.59
55517;BME280;41724;51.176;-0.708;2023-11-21T07:18:04;101534.86;;;11.62;72.72
55517;BME280;41724;51.176;-0.708;2023-11-21T07:20:31;101534.74;;;12.35;70.76
55517;BME280;41724;51.176;-0.708;2023-11-21T07:22:58;101537.29;;;12.10;70.13
55517;BME280;41724;51.176;-0.708;2023-11-21T07:25:25;101545.08;;;12.26;69.01
55517;BME280;41724;51.176;-0.708;2023-11-21T07:27:52;101553.73;;;12.14;71.41
55517;BME280;41724;51.176;-0.708;2023-11-21T07:30:19;101557.09;;;12.44;69.23
55517;BME280;41724;51.176;-0.708;2023-11-21T07:32:46;101562.37;;;11.90;68.58
55517;BME280;41724;51.176;-0.708;2023-11-21T07:35:13;101567.88;;;12.57;68.83
55517;BME280;41724;51.176;-0.708;2023-11-21T07:37:40;101573.06;;;12.17;70.00
55517;BME280;41724;51.176;-0.708;2023-11-21T07:40:08;101575.17;;;12.20;69.20
55517;BME280;41724;51.176;-0.708;2023-11-21T07:42:35;101580.46;;;12.30;66.91
55517;BME280;41724;51.176;-0.708;2023-11-21T07:45:03;101579.19;;;12.21;69.85
55517;BME280;41724;51.176;-0.708;2023-11-21T07:47:31;101580.41;;;12.45;68.17
55517;BME280;41724;51.176;-0.708;2023-11-21T07:49:58;101590.69;;;13.04;67.45
55517;BME280;41724;51.176;-0.708;2023-11-21T07:52:25;101589.92;;;12.90;67.09
55517;BME280;41724;51.176;-0.708;2023-11-21T07:54:52;101590.72;;;13.02;66.50
55517;BME280;41724;51.176;-0.708;2023-11-21T07:57:19;101594.60;;;13.17;66.68
55517;BME280;41724;51.176;-0.708;2023-11-21T07:59:46;101593.14;;;12.49;65.44
55517;BME280;41724;51.176;-0.708;2023-11-21T08:02:13;101599.27;;;12.33;67.34
55517;BME280;41724;51.176;-0.708;2023-11-21T08:04:40;101604.38;;;12.82;66.72
55517;BME280;41724;51.176;-0.708;2023-11-21T08:07:07;101612.20;;;12.71;66.31
55517;BME280;41724;51.176;-0.708;2023-11-21T08:09:34;101613.33;;;12.62;66.97
55517;BME280;41724;51.176;-0.708;2023-11-21T08:12:01;101615.47;;;12.78;66.41
55517;BME280;41724;51.176;-0.708;2023-11-21T08:14:28;101614.89;;;12.65;66.99
55517;BME280;41724;51.176;-0.708;2023-11-21T08:16:55;101625.30;;;12.53;67.71
55517;BME280;41724;51.176;-0.708;2023-11-21T08:19:23;101627.62;;;13.34;67.57
55517;BME280;41724;51.176;-0.708;2023-11-21T08:21:50;101628.43;;;13.49;66.52
55517;BME280;41724;51.176;-0.708;2023-11-21T08:24:17;101634.22;;;13.07;66.40
55517;BME280;41724;51.176;-0.708;2023-11-21T08:26:44;101639.04;;;13.03;66.12
55517;BME280;41724;51.176;-0.708;2023-11-21T08:29:11;101640.89;;;12.78;67.22
55517;BME280;41724;51.176;-0.708;2023-11-21T08:31:38;101643.47;;;13.00;67.42
55517;BME280;41724;51.176;-0.708;2023-11-21T08:34:06;101646.88;;;12.70;66.18
55517;BME280;41724;51.176;-0.708;2023-11-21T08:36:33;101644.31;;;13.06;65.97
55517;BME280;41724;51.176;-0.708;2023-11-21T08:39:00;101647.08;;;13.37;65.51
55517;BME280;41724;51.176;-0.708;2023-11-21T08:41:27;101648.25;;;13.26;64.86
55517;BME280;41724;51.176;-0.708;2023-11-21T08:43:54;101652.25;;;13.14;65.47
55517;BME280;41724;51.176;-0.708;2023-11-21T08:46:21;101654.54;;;12.86;64.81
55517;BME280;41724;51.176;-0.708;2023-11-21T08:48:48;101653.12;;;12.65;65.41
55517;BME280;41724;51.176;-0.708;2023-11-21T08:51:15;101657.64;;;12.97;65.72
55517;BME280;41724;51.176;-0.708;2023-11-21T08:53:42;101659.95;;;12.48;66.08
55517;BME280;41724;51.176;-0.708;2023-11-21T08:56:12;101662.33;;;12.81;66.74
55517;BME280;41724;51.176;-0.708;2023-11-21T08:58:39;101670.89;;;12.71;66.80
55517;BME280;41724;51.176;-0.708;2023-11-21T09:01:06;101672.88;;;13.34;66.33
55517;BME280;41724;51.176;-0.708;2023-11-21T09:03:33;101677.72;;;13.18;65.50
55517;BME280;41724;51.176;-0.708;2023-11-21T09:06:00;101675.12;;;13.47;65.40
55517;BME280;41724;51.176;-0.708;2023-11-21T09:08:27;101684.97;;;13.32;65.65
55517;BME280;41724;51.176;-0.708;2023-11-21T09:10:54;101682.98;;;13.28;65.26
55517;BME280;41724;51.176;-0.708;2023-11-21T09:13:21;101680.81;;;13.30;64.98
55517;BME280;41724;51.176;-0.708;2023-11-21T09:15:49;101677.92;;;13.14;65.41
55517;BME280;41724;51.176;-0.708;2023-11-21T09:18:15;101684.14;;;13.06;66.97
55517;BME280;41724;51.176;-0.708;2023-11-21T09:20:43;101695.04;;;12.85;65.17
55517;BME280;41724;51.176;-0.708;2023-11-21T09:23:10;101699.32;;;13.00;65.50
55517;BME280;41724;51.176;-0.708;2023-11-21T09:25:37;101703.18;;;12.71;65.05
55517;BME280;41724;51.176;-0.708;2023-11-21T09:28:04;101705.02;;;13.64;64.07
55517;BME280;41724;51.176;-0.708;2023-11-21T09:30:32;101707.80;;;13.50;64.38
55517;BME280;41724;51.176;-0.708;2023-11-21T09:32:59;101704.03;;;13.25;65.38
55517;BME280;41724;51.176;-0.708;2023-11-21T09:35:26;101710.55;;;13.15;66.31
55517;BME280;41724;51.176;-0.708;2023-11-21T09:37:53;101714.42;;;13.07;65.99
55517;BME280;41724;51.176;-0.708;2023-11-21T09:40:22;101718.36;;;12.93;65.63
55517;BME280;41724;51.176;-0.708;2023-11-21T09:42:53;101710.58;;;13.09;66.29
55517;BME280;41724;51.176;-0.708;2023-11-21T09:45:25;101717.02;;;12.48;67.14
55517;BME280;41724;51.176;-0.708;2023-11-21T09:47:53;101719.83;;;13.15;65.92
55517;BME280;41724;51.176;-0.708;2023-11-21T09:50:21;101734.37;;;13.24;66.20
55517;BME280;41724;51.176;-0.708;2023-11-21T09:52:55;101724.21;;;12.76;66.97
55517;BME280;41724;51.176;-0.708;2023-11-21T09:55:27;101732.78;;;13.31;67.60
55517;BME280;41724;51.176;-0.708;2023-11-21T09:57:56;101735.62;;;13.43;67.18
55517;BME280;41724;51.176;-0.708;2023-11-21T10:00:23;101743.41;;;12.85;67.25
55517;BME280;41724;51.176;-0.708;2023-11-21T10:02:51;101741.73;;;12.68;68.55
55517;BME280;41724;51.176;-0.708;2023-11-21T10:05:18;101751.27;;;12.61;68.95
55517;BME280;41724;51.176;-0.708;2023-11-21T10:07:46;101756.37;;;12.89;68.39
55517;BME280;41724;51.176;-0.708;2023-11-21T10:10:15;101761.14;;;13.06;68.39
55517;BME280;41724;51.176;-0.708;2023-11-21T10:12:49;101765.74;;;13.35;68.14
55517;BME280;41724;51.176;-0.708;2023-11-21T10:15:18;101761.21;;;13.26;66.82
55517;BME280;41724;51.176;-0.708;2023-11-21T10:17:46;101766.10;;;12.98;66.71
55517;BME280;41724;51.176;-0.708;2023-11-21T10:20:17;101769.82;;;12.99;67.80
55517;BME280;41724;51.176;-0.708;2023-11-21T10:22:44;101772.47;;;13.29;67.86
55517;BME280;41724;51.176;-0.708;2023-11-21T10:25:12;101763.30;;;13.83;65.80
55517;BME280;41724;51.176;-0.708;2023-11-21T10:27:41;101756.39;;;14.14;64.66
55517;BME280;41724;51.176;-0.708;2023-11-21T10:30:09;101756.04;;;14.56;64.39
55517;BME280;41724;51.176;-0.708;2023-11-21T10:32:36;101756.47;;;13.77;64.59
55517;BME280;41724;51.176;-0.708;2023-11-21T10:35:03;101761.16;;;14.25;63.69
55517;BME280;41724;51.176;-0.708;2023-11-21T10:37:31;101762.06;;;13.69;65.68
55517;BME280;41724;51.176;-0.708;2023-11-21T10:39:58;101762.15;;;14.05;65.63
55517;BME280;41724;51.176;-0.708;2023-11-21T10:42:25;101764.11;;;14.04;65.11
55517;BME280;41724;51.176;-0.708;2023-11-21T10:44:53;101765.13;;;14.89;63.70
55517;BME280;41724;51.176;-0.708;2023-11-21T10:47:20;101770.26;;;14.76;63.55
55517;BME280;41724;51.176;-0.708;2023-11-21T10:49:48;101777.75;;;14.40;64.15
55517;BME280;41724;51.176;-0.708;2023-11-21T10:52:15;101777.91;;;14.68;64.03
55517;BME280;41724;51.176;-0.708;2023-11-21T10:54:47;101776.07;;;14.20;66.40
55517;BME280;41724;51.176;-0.708;2023-11-21T10:57:19;101774.87;;;14.56;65.38
55517;BME280;41724;51.176;-0.708;2023-11-21T10:59:47;101775.31;;;14.49;65.08
55517;BME280;41724;51.176;-0.708;2023-11-21T11:02:23;101772.71;;;14.75;65.74
55517;BME280;41724;51.176;-0.708;2023-11-21T11:04:52;101771.11;;;14.80;63.14
55517;BME280;41724;51.176;-0.708;2023-11-21T11:07:20;101769.62;;;15.15;63.80
55517;BME280;41724;51.176;-0.708;2023-11-21T11:09:48;101771.38;;;14.70;64.02
55517;BME280;41724;51.176;-0.708;2023-11-21T11:12:15;101774.91;;;15.47;64.16
55517;BME280;41724;51.176;-0.708;2023-11-21T11:14:43;101772.54;;;14.23;64.10
55517;BME280;41724;51.176;-0.708;2023-11-21T11:17:10;101773.30;;;14.79;63.83
55517;BME280;41724;51.176;-0.708;2023-11-21T11:19:38;101775.96;;;15.11;64.52
55517;BME280;41724;51.176;-0.708;2023-11-21T11:22:14;101782.54;;;14.18;66.53
55517;BME280;41724;51.176;-0.708;2023-11-21T11:25:00;101789.21;;;13.98;66.05
55517;BME280;41724;51.176;-0.708;2023-11-21T11:27:37;101786.60;;;14.17;68.25
55517;BME280;41724;51.176;-0.708;2023-11-21T11:30:16;101795.61;;;14.37;67.72
55517;BME280;41724;51.176;-0.708;2023-11-21T11:32:52;101789.64;;;13.77;67.58
55517;BME280;41724;51.176;-0.708;2023-11-21T11:35:42;101790.70;;;13.87;69.30
55517;BME280;41724;51.176;-0.708;2023-11-21T11:38:14;101793.55;;;13.99;68.37
55517;BME280;41724;51.176;-0.708;2023-11-21T11:40:41;101797.10;;;13.69;69.15
55517;BME280;41724;51.176;-0.708;2023-11-21T11:43:08;101796.27;;;13.92;68.25
55517;BME280;41724;51.176;-0.708;2023-11-21T11:45:36;101795.78;;;14.53;67.22
55517;BME280;41724;51.176;-0.708;2023-11-21T11:48:05;101794.60;;;14.65;67.62
55517;BME280;41724;51.176;-0.708;2023-11-21T11:50:33;101802.84;;;14.97;66.25
55517;BME280;41724;51.176;-0.708;2023-11-21T11:53:13;101805.39;;;14.70;66.87
55517;BME280;41724;51.176;-0.708;2023-11-21T11:55:40;101806.78;;;14.67;66.95
55517;BME280;41724;51.176;-0.708;2023-11-21T11:58:07;101805.22;;;14.82;66.73
55517;BME280;41724;51.176;-0.708;2023-11-21T12:00:36;101806.75;;;15.05;65.28
55517;BME280;41724;51.176;-0.708;2023-11-21T12:03:05;101805.73;;;14.77;66.64
55517;BME280;41724;51.176;-0.708;2023-11-21T12:05:33;101803.40;;;14.97;65.58
55517;BME280;41724;51.176;-0.708;2023-11-21T12:08:02;101805.31;;;14.81;66.61
55517;BME280;41724;51.176;-0.708;2023-11-21T12:10:30;101809.32;;;14.73;67.71
55517;BME280;41724;51.176;-0.708;2023-11-21T12:12:59;101813.27;;;15.24;66.39
55517;BME280;41724;51.176;-0.708;2023-11-21T12:15:27;101817.05;;;14.08;69.77
55517;BME280;41724;51.176;-0.708;2023-11-21T12:17:54;101816.16;;;14.97;67.43
55517;BME280;41724;51.176;-0.708;2023-11-21T12:20:22;101814.19;;;15.20;66.65
55517;BME280;41724;51.176;-0.708;2023-11-21T12:22:51;101817.01;;;14.87;66.78
55517;BME280;41724;51.176;-0.708;2023-11-21T12:25:19;101821.17;;;15.13;66.30
55517;BME280;41724;51.176;-0.708;2023-11-21T12:27:48;101829.36;;;15.75;65.44
55517;BME280;41724;51.176;-0.708;2023-11-21T12:30:17;101832.77;;;15.42;66.10
55517;BME280;41724;51.176;-0.708;2023-11-21T12:32:47;101840.18;;;14.81;67.29
55517;BME280;41724;51.176;-0.708;2023-11-21T12:35:14;101840.46;;;15.27;66.26
55517;BME280;41724;51.176;-0.708;2023-11-21T12:37:42;101841.22;;;15.03;67.32
55517;BME280;41724;51.176;-0.708;2023-11-21T12:40:10;101848.64;;;15.34;67.41
55517;BME280;41724;51.176;-0.708;2023-11-21T12:42:37;101849.88;;;14.43;68.25